Time;durP1;ratioP1;P1;durP2;ratioP2;P2;SDS_P1;SDS_P2;PMS_P1;PMS_P2;Temp;Humidity;BMP_temperature;BMP_pressure;BME280_temperature;BME280_humidity;BME280_pressure;Samples;Min_cycle;Max_cycle;Signal;HPM_P1;HPM_P2
2024/01/15 00:00:41;;;;;;;22.27;10.70;;;1.20;99.90;;;2.78;100.00;98860.78;4950769;28;20036;-77
2024/01/15 00:03:07;;;;;;;21.08;10.20;;;1.20;99.90;;;2.82;100.00;98859.31;4947879;29;20036;-76
2024/01/15 00:05:33;;;;;;;19.55;9.57;;;1.20;99.90;;;2.69;100.00;98842.16;4947720;28;20035;-78
2024/01/15 00:07:58;;;;;;;22.73;10.55;;;1.20;99.90;;;2.83;100.00;98847.50;4937573;29;20042;-76
2024/01/15 00:10:24;;;;;;;19.23;9.57;;;1.20;99.90;;;2.71;100.00;98842.78;4944618;29;20039;-76
2024/01/15 00:12:50;;;;;;;18.33;9.18;;;1.30;99.90;;;2.79;100.00;98849.81;4950432;28;20369;-75
2024/01/15 00:15:16;;;;;;;20.42;8.95;;;1.30;99.90;;;2.78;100.00;98839.22;4935814;29;20115;-77
2024/01/15 00:17:41;;;;;;;20.25;8.32;;;1.30;99.90;;;2.90;100.00;98848.31;4939124;28;20084;-76
2024/01/15 00:20:08;;;;;;;20.67;8.60;;;1.30;99.90;;;2.85;100.00;98840.03;4940768;28;20039;-76
2024/01/15 00:22:35;;;;;;;15.65;8.27;;;1.40;99.90;;;2.76;100.00;98850.19;4944031;29;20069;-76
2024/01/15 00:25:02;;;;;;;18.58;8.30;;;1.40;99.90;;;2.84;100.00;98846.47;4947438;28;20491;-76
2024/01/15 00:27:28;;;;;;;17.92;7.15;;;1.50;99.90;;;2.82;100.00;98843.16;4939567;28;20032;-77
2024/01/15 00:29:54;;;;;;;13.57;6.55;;;1.40;99.90;;;2.67;100.00;98846.94;4960952;28;20041;-77
2024/01/15 00:32:20;;;;;;;16.27;6.80;;;1.40;99.90;;;2.68;100.00;98847.72;4949843;28;20043;-76
2024/01/15 00:34:46;;;;;;;13.38;6.70;;;1.40;99.90;;;2.76;100.00;98857.47;4939116;29;20487;-77
2024/01/15 00:37:12;;;;;;;14.40;5.35;;;1.30;99.90;;;2.50;100.00;98834.91;4944350;29;20050;-76
2024/01/15 00:39:38;;;;;;;15.30;6.13;;;1.30;99.90;;;2.46;100.00;98820.22;4948623;28;20561;-77
2024/01/15 00:42:04;;;;;;;13.10;6.07;;;1.30;99.90;;;2.44;100.00;98836.56;4938304;28;20039;-78
2024/01/15 00:44:30;;;;;;;13.50;5.95;;;1.30;99.90;;;2.54;100.00;98814.63;4940479;29;20039;-78
2024/01/15 00:46:56;;;;;;;14.65;6.20;;;1.40;99.90;;;2.64;100.00;98835.72;4943141;28;20368;-76
2024/01/15 00:49:21;;;;;;;10.50;5.50;;;1.30;99.90;;;2.60;100.00;98819.16;4932141;28;20067;-76
2024/01/15 00:51:47;;;;;;;12.82;6.03;;;1.30;99.90;;;2.58;100.00;98810.47;4938003;29;20039;-76
2024/01/15 00:54:13;;;;;;;13.40;6.55;;;1.20;99.90;;;2.47;100.00;98800.34;4940090;29;20175;-77
2024/01/15 00:56:41;;;;;;;14.80;5.82;;;1.20;99.90;;;2.54;100.00;98798.47;4950845;29;20069;-76
2024/01/15 00:59:10;;;;;;;11.10;5.65;;;1.10;99.90;;;2.53;100.00;98804.88;4950973;28;20452;-77
2024/01/15 01:01:37;;;;;;;12.73;5.53;;;1.10;99.90;;;2.56;100.00;98820.63;4939256;29;20094;-76
2024/01/15 01:04:03;;;;;;;13.98;5.65;;;1.10;99.90;;;2.61;100.00;98785.81;4935726;29;20050;-77
2024/01/15 01:06:29;;;;;;;15.95;6.05;;;1.10;99.90;;;2.66;100.00;98807.56;4936828;29;20028;-76
2024/01/15 01:08:55;;;;;;;11.88;5.95;;;1.20;99.90;;;2.55;100.00;98789.34;4940970;28;20456;-76
2024/01/15 01:11:20;;;;;;;12.07;5.93;;;1.20;99.90;;;2.69;100.00;98804.44;4943184;29;20040;-76
2024/01/15 01:13:46;;;;;;;14.52;5.57;;;1.20;99.90;;;2.57;100.00;98822.28;4939118;28;20050;-77
2024/01/15 01:16:12;;;;;;;12.73;5.03;;;1.20;99.90;;;2.64;100.00;98806.94;4933834;29;20035;-76
2024/01/15 01:18:38;;;;;;;10.45;4.63;;;1.30;99.90;;;2.73;100.00;98808.38;4961190;28;20039;-76
2024/01/15 01:21:03;;;;;;;11.90;5.10;;;1.30;99.90;;;2.57;100.00;98792.66;4939806;29;20464;-76
2024/01/15 01:23:29;;;;;;;13.93;5.63;;;1.30;99.90;;;2.74;100.00;98795.72;4938404;28;20395;-77
2024/01/15 01:25:55;;;;;;;16.52;5.32;;;1.30;99.90;;;2.63;100.00;98799.06;4942946;29;20495;-77
2024/01/15 01:28:20;;;;;;;12.80;5.10;;;1.20;99.90;;;2.57;100.00;98785.41;4944978;28;20043;-77
2024/01/15 01:30:46;;;;;;;13.77;5.57;;;1.20;99.90;;;2.66;100.00;98783.34;4941086;29;20374;-76
2024/01/15 01:33:12;;;;;;;12.23;4.53;;;1.20;99.90;;;2.52;100.00;98790.63;4954810;28;20043;-75
2024/01/15 01:35:38;;;;;;;10.85;4.40;;;1.20;99.90;;;2.61;100.00;98776.91;4942165;29;20153;-75
2024/01/15 01:38:04;;;;;;;10.60;3.85;;;1.20;99.90;;;2.64;100.00;98825.78;4934715;29;20039;-77
2024/01/15 01:40:30;;;;;;;14.95;3.80;;;1.30;99.90;;;2.71;100.00;98780.00;4941190;29;20491;-77
2024/01/15 01:42:55;;;;;;;16.20;4.95;;;1.40;99.90;;;2.79;100.00;98776.25;4948426;29;20045;-77
2024/01/15 01:45:21;;;;;;;11.88;3.63;;;1.40;99.90;;;2.77;100.00;98781.03;4955239;28;20058;-77
2024/01/15 01:47:47;;;;;;;11.73;3.70;;;1.40;99.90;;;2.88;100.00;98781.19;4955670;28;20034;-76
2024/01/15 01:50:14;;;;;;;11.55;3.38;;;1.40;99.90;;;2.72;100.00;98774.41;4941296;29;20077;-77
2024/01/15 01:52:41;;;;;;;10.70;3.55;;;1.40;99.90;;;2.64;100.00;98758.47;4952308;29;20487;-77
2024/01/15 01:55:10;;;;;;;11.95;2.75;;;1.50;99.90;;;2.90;100.00;98785.53;4938444;29;20051;-76
2024/01/15 01:57:36;;;;;;;15.57;2.97;;;1.70;99.90;;;3.04;100.00;98764.75;4937982;29;20043;-77
2024/01/15 02:00:04;;;;;;;11.68;2.80;;;1.70;99.90;;;3.09;100.00;98770.34;4957780;28;20130;-76
2024/01/15 02:02:37;;;;;;;9.68;3.33;;;1.70;99.90;;;2.92;100.00;98762.75;4943243;29;20043;-77
2024/01/15 02:05:06;;;;;;;7.40;2.33;;;1.70;99.90;;;3.08;100.00;98783.00;4938006;29;20038;-77
2024/01/15 02:07:34;;;;;;;11.93;2.40;;;1.60;99.90;;;2.95;100.00;98777.66;4941398;29;20364;-77
2024/01/15 02:10:00;;;;;;;17.10;2.95;;;1.60;99.90;;;3.17;100.00;98770.91;4946732;28;20106;-76
2024/01/15 02:12:26;;;;;;;10.07;2.85;;;1.60;99.90;;;3.20;100.00;98783.16;4953085;28;20419;-76
2024/01/15 02:14:51;;;;;;;8.05;2.38;;;1.70;99.90;;;3.37;100.00;98758.38;4942925;29;20087;-76
2024/01/15 02:17:17;;;;;;;11.25;2.70;;;1.80;99.90;;;3.30;100.00;98764.63;4948812;29;20057;-77
2024/01/15 02:19:43;;;;;;;10.75;2.80;;;1.80;99.90;;;3.41;100.00;98740.72;4953455;28;20043;-76
2024/01/15 02:22:09;;;;;;;14.38;2.80;;;1.80;99.90;;;3.40;100.00;98757.94;4941778;28;20103;-76
2024/01/15 02:24:34;;;;;;;8.95;2.00;;;1.90;99.90;;;3.34;100.00;98765.03;4948890;29;20102;-76
2024/01/15 02:27:00;;;;;;;8.80;2.08;;;1.90;99.90;;;3.30;100.00;98774.56;4943234;28;20051;-76
2024/01/15 02:29:26;;;;;;;16.33;2.45;;;2.00;99.90;;;3.49;100.00;98756.66;4939805;28;20043;-77
2024/01/15 02:31:52;;;;;;;13.45;3.22;;;2.00;99.90;;;3.40;100.00;98753.41;4952552;28;20403;-76
2024/01/15 02:34:17;;;;;;;7.00;1.90;;;2.00;99.90;;;3.47;100.00;98768.69;4946641;28;20445;-76
2024/01/15 02:36:43;;;;;;;15.30;2.42;;;2.10;99.90;;;3.38;100.00;98755.47;4937403;29;20094;-75
2024/01/15 02:39:09;;;;;;;12.27;2.65;;;2.10;99.90;;;3.54;100.00;98767.63;4946307;29;20039;-76
2024/01/15 02:41:34;;;;;;;8.18;1.83;;;2.10;99.90;;;3.62;100.00;98760.31;4954982;28;20031;-77
2024/01/15 02:44:00;;;;;;;8.95;2.10;;;2.10;99.90;;;3.25;100.00;98731.28;4945658;29;20491;-77
2024/01/15 02:46:26;;;;;;;8.18;1.60;;;2.10;99.90;;;3.38;100.00;98735.75;4947227;28;20035;-78
2024/01/15 02:48:51;;;;;;;8.55;1.98;;;2.10;99.90;;;3.53;100.00;98748.94;4940455;29;20448;-76
2024/01/15 02:51:17;;;;;;;7.88;1.70;;;2.10;99.90;;;3.60;100.00;98755.16;4952223;28;20044;-76
2024/01/15 02:53:43;;;;;;;7.85;2.15;;;2.10;99.90;;;3.59;100.00;98751.59;4937476;29;20055;-76
2024/01/15 02:56:08;;;;;;;13.07;2.30;;;2.10;99.90;;;3.35;100.00;98738.91;4949838;28;20035;-77
2024/01/15 02:58:34;;;;;;;7.32;1.52;;;2.20;99.90;;;3.65;100.00;98738.28;4937231;29;20043;-76
2024/01/15 03:01:00;;;;;;;8.43;1.73;;;2.20;99.90;;;3.55;100.00;98744.16;4943784;29;20035;-77
2024/01/15 03:03:26;;;;;;;11.10;2.03;;;2.20;99.90;;;3.45;100.00;98734.69;4942610;29;20039;-77
2024/01/15 03:05:51;;;;;;;6.90;2.10;;;2.10;99.90;;;3.59;100.00;98767.78;4937387;28;20435;-77
2024/01/15 03:08:17;;;;;;;8.98;1.70;;;2.10;99.90;;;3.36;100.00;98743.25;4951925;28;20047;-76
2024/01/15 03:10:43;;;;;;;8.63;1.55;;;2.20;99.90;;;3.49;100.00;98745.03;4942612;28;20562;-77
2024/01/15 03:13:08;;;;;;;10.52;1.83;;;2.20;99.90;;;3.50;100.00;98719.72;4946602;28;20507;-79
2024/01/15 03:15:34;;;;;;;8.88;1.60;;;2.20;99.90;;;3.46;100.00;98730.13;4942825;29;20387;-77
2024/01/15 03:18:00;;;;;;;9.13;1.70;;;2.20;99.90;;;3.30;100.00;98743.06;4953295;28;20086;-76
2024/01/15 03:20:26;;;;;;;13.35;1.85;;;2.10;99.90;;;3.28;100.00;98750.56;4962878;28;20046;-77
2024/01/15 03:22:51;;;;;;;12.13;2.13;;;2.00;99.90;;;3.39;100.00;98770.63;4945541;28;20047;-77
2024/01/15 03:25:17;;;;;;;6.53;1.67;;;2.00;99.90;;;3.28;100.00;98747.00;4948558;29;20035;-78
2024/01/15 03:27:43;;;;;;;7.97;1.20;;;2.00;99.90;;;3.55;100.00;98760.34;4935520;29;20048;-76
2024/01/15 03:30:09;;;;;;;13.38;2.28;;;2.10;99.90;;;3.43;100.00;98754.81;4941464;28;20043;-76
2024/01/15 03:32:34;;;;;;;12.60;1.67;;;2.10;99.90;;;3.63;100.00;98746.63;4958782;28;20129;-77
2024/01/15 03:35:00;;;;;;;9.88;1.40;;;2.10;99.90;;;3.67;100.00;98755.91;4944659;28;20032;-76
2024/01/15 03:37:26;;;;;;;9.73;1.33;;;2.10;99.90;;;3.46;100.00;98746.31;4956590;28;20043;-76
2024/01/15 03:39:51;;;;;;;4.82;1.10;;;2.10;99.90;;;3.71;100.00;98742.81;4941548;29;20035;-76
2024/01/15 03:42:17;;;;;;;6.53;1.15;;;2.10;99.90;;;3.65;100.00;98754.47;4956356;28;20043;-77
2024/01/15 03:44:43;;;;;;;8.50;1.15;;;2.10;99.90;;;3.62;100.00;98744.13;4942049;28;20491;-77
2024/01/15 03:47:09;;;;;;;13.23;2.05;;;2.10;99.90;;;3.42;100.00;98745.06;4950903;28;20108;-76
2024/01/15 03:49:34;;;;;;;6.47;1.30;;;2.10;99.90;;;3.45;100.00;98755.44;4950947;28;20802;-76
2024/01/15 03:52:00;;;;;;;8.13;1.45;;;2.00;99.90;;;3.28;100.00;98757.81;4935112;29;20046;-78
2024/01/15 03:54:26;;;;;;;7.50;1.30;;;2.00;99.90;;;3.53;100.00;98757.03;4936187;29;20055;-77
2024/01/15 03:56:52;;;;;;;11.27;1.48;;;2.00;99.90;;;3.48;100.00;98754.16;4936355;29;20043;-77
2024/01/15 03:59:18;;;;;;;7.68;1.23;;;2.10;99.90;;;3.45;100.00;98750.88;4940494;28;20039;-78
2024/01/15 04:01:51;;;;;;;10.98;1.58;;;2.20;99.90;;;3.30;100.00;98751.16;4948097;28;20027;-80
2024/01/15 04:04:19;;;;;;;11.00;1.92;;;2.20;99.90;;;3.30;100.00;98753.84;4956305;28;20050;-77
2024/01/15 04:06:44;;;;;;;;;;;2.30;99.90;;;3.58;100.00;98754.50;4946100;28;20040;-76
2024/01/15 04:09:13;;;;;;;8.20;1.23;;;2.20;99.90;;;3.64;100.00;98777.09;4942750;29;19985;-77
2024/01/15 04:11:39;;;;;;;6.80;1.10;;;2.30;99.90;;;3.52;100.00;98772.41;4935905;28;20042;-77
2024/01/15 04:14:05;;;;;;;10.18;1.90;;;2.20;99.90;;;3.66;100.00;98756.97;4957504;28;20036;-76
2024/01/15 04:16:31;;;;;;;8.52;1.50;;;2.30;99.90;;;3.65;100.00;98738.28;4947813;28;20476;-77
2024/01/15 04:18:56;;;;;;;6.53;1.27;;;2.30;99.90;;;3.64;100.00;98720.47;4942818;28;20495;-77
2024/01/15 04:21:22;;;;;;;13.05;1.90;;;2.30;99.90;;;3.74;100.00;98750.47;4957449;28;20047;-76
2024/01/15 04:23:48;;;;;;;10.88;1.60;;;2.30;99.90;;;3.82;100.00;98755.59;4942465;28;20035;-77
2024/01/15 04:26:13;;;;;;;7.72;1.40;;;2.30;99.90;;;3.68;100.00;98738.69;4937781;29;20949;-78
2024/01/15 04:28:40;;;;;;;9.57;1.70;;;2.40;99.90;;;3.48;100.00;98752.31;4956833;28;20035;-77
2024/01/15 04:31:06;;;;;;;6.68;1.60;;;2.40;99.90;;;3.94;100.00;98739.53;4938855;29;20110;-77
2024/01/15 04:33:31;;;;;;;10.65;1.92;;;2.30;99.90;;;3.76;100.00;98758.34;4941628;28;20031;-77
2024/01/15 04:36:01;;;;;;;7.13;1.30;;;2.40;99.90;;;3.72;100.00;98764.19;4948750;28;20050;-76
2024/01/15 04:38:27;;;;;;;7.28;1.42;;;2.30;99.90;;;3.50;100.00;98757.47;4940800;29;20046;-76
2024/01/15 04:40:52;;;;;;;5.38;1.55;;;2.20;99.90;;;3.27;100.00;98746.19;4950341;28;20032;-76
2024/01/15 04:43:18;;;;;;;9.98;2.20;;;2.10;99.90;;;3.33;100.00;98757.16;4935667;29;20057;-77
2024/01/15 04:45:44;;;;;;;11.70;1.63;;;2.00;99.90;;;3.46;100.00;98757.09;4940337;29;20039;-77
2024/01/15 04:48:09;;;;;;;8.13;1.65;;;1.90;99.90;;;3.08;100.00;98756.06;4937994;29;20039;-77
2024/01/15 04:50:35;;;;;;;8.48;1.60;;;1.90;99.90;;;3.41;100.00;98741.56;4946229;29;20044;-78
2024/01/15 04:53:01;;;;;;;9.63;1.55;;;1.90;99.90;;;3.43;100.00;98754.81;4943944;28;20082;-77
2024/01/15 04:55:26;;;;;;;6.43;1.73;;;1.80;99.90;;;3.19;100.00;98751.84;4935512;29;20476;-76
2024/01/15 04:57:52;;;;;;;9.65;1.67;;;1.90;99.90;;;3.47;100.00;98747.97;4935449;29;20039;-76
2024/01/15 05:00:19;;;;;;;8.93;2.13;;;2.00;99.90;;;3.30;100.00;98761.94;4947514;29;20036;-77
2024/01/15 05:02:45;;;;;;;10.63;1.88;;;2.00;99.90;;;3.28;100.00;98750.56;4941643;29;20043;-76
2024/01/15 05:05:10;;;;;;;7.70;1.25;;;2.00;99.90;;;3.27;100.00;98731.88;4937524;28;20463;-78
2024/01/15 05:07:36;;;;;;;9.07;1.67;;;2.00;99.90;;;3.51;100.00;98741.09;4944580;29;20043;-77
2024/01/15 05:10:02;;;;;;;9.07;2.28;;;2.00;99.90;;;3.55;100.00;98726.13;4939354;28;20040;-77
2024/01/15 05:12:28;;;;;;;10.68;1.73;;;2.00;99.90;;;3.22;100.00;98731.72;4963777;28;20063;-75
2024/01/15 05:14:54;;;;;;;8.10;1.92;;;2.00;99.90;;;3.02;100.00;98754.19;4944307;28;20031;-76
2024/01/15 05:17:19;;;;;;;9.07;1.80;;;1.80;99.90;;;2.81;100.00;98728.38;4938082;28;20054;-77
2024/01/15 05:19:45;;;;;;;9.25;2.25;;;1.60;99.90;;;2.81;100.00;98729.22;4945319;28;20039;-75
2024/01/15 05:22:11;;;;;;;8.05;1.40;;;1.40;99.90;;;2.81;100.00;98726.53;4944071;28;20043;-76
2024/01/15 05:24:36;;;;;;;9.40;1.60;;;1.40;99.90;;;3.01;100.00;98728.28;4953943;28;20372;-76
2024/01/15 05:27:02;;;;;;;11.38;1.63;;;1.40;99.90;;;2.96;100.00;98728.09;4949489;28;20046;-76
2024/01/15 05:29:28;;;;;;;8.27;1.30;;;1.40;99.90;;;2.97;100.00;98722.53;4952012;28;20063;-78
2024/01/15 05:31:53;;;;;;;7.45;1.70;;;1.50;99.90;;;3.04;100.00;98724.34;4958699;28;20047;-78
2024/01/15 05:34:19;;;;;;;5.45;1.30;;;1.50;99.90;;;2.98;100.00;98726.88;4948822;28;20036;-76
2024/01/15 05:36:47;;;;;;;8.25;1.48;;;1.60;99.90;;;2.85;100.00;98722.38;4962791;28;20050;-77
2024/01/15 05:39:13;;;;;;;7.63;1.40;;;1.60;99.90;;;2.96;100.00;98733.50;4947240;29;20175;-77
2024/01/15 05:41:39;;;;;;;10.82;1.60;;;1.60;99.90;;;2.90;100.00;98747.81;4944502;28;20134;-77
2024/01/15 05:44:04;;;;;;;8.60;1.60;;;1.60;99.90;;;2.99;100.00;98719.59;4942773;28;20047;-78
2024/01/15 05:46:30;;;;;;;8.45;1.75;;;1.60;99.90;;;2.97;100.00;98730.59;4945272;28;20027;-76
2024/01/15 05:48:56;;;;;;;6.60;1.08;;;1.50;99.90;;;2.93;100.00;98725.84;4950157;28;21789;-75
2024/01/15 05:51:21;;;;;;;9.18;1.40;;;1.50;99.90;;;2.85;100.00;98724.22;4948117;28;20050;-76
2024/01/15 05:53:47;;;;;;;8.98;1.40;;;1.50;99.90;;;2.94;100.00;98728.34;4939845;28;20058;-75
2024/01/15 05:56:13;;;;;;;7.13;1.33;;;1.60;99.90;;;2.83;100.00;98710.13;4942782;28;20066;-75
2024/01/15 05:58:39;;;;;;;8.25;1.50;;;1.60;99.90;;;2.96;100.00;98711.94;4955432;28;20139;-76
2024/01/15 06:01:04;;;;;;;7.65;1.50;;;1.60;99.90;;;3.17;100.00;98705.41;4946628;28;20043;-77
2024/01/15 06:03:30;;;;;;;10.00;1.20;;;1.60;99.90;;;2.93;100.00;98732.06;4937273;29;20407;-76
2024/01/15 06:05:56;;;;;;;17.75;1.40;;;1.70;99.90;;;3.14;100.00;98733.63;4940952;29;20036;-76
2024/01/15 06:08:21;;;;;;;8.43;1.50;;;1.80;99.90;;;3.20;100.00;98721.16;4943587;28;20138;-77
2024/01/15 06:10:47;;;;;;;5.60;2.30;;;1.80;99.90;;;3.21;100.00;98744.38;4941160;29;20043;-76
2024/01/15 06:13:13;;;;;;;6.78;1.60;;;1.80;99.90;;;3.18;100.00;98723.22;4944866;28;20040;-76
2024/01/15 06:15:39;;;;;;;3.83;1.00;;;1.80;99.90;;;3.21;100.00;98722.81;4957040;28;20063;-75
2024/01/15 06:18:05;;;;;;;5.28;0.98;;;1.80;99.90;;;3.24;100.00;98729.63;4960305;28;20149;-76
2024/01/15 06:20:30;;;;;;;8.93;1.65;;;1.80;99.90;;;3.19;100.00;98730.28;4949447;29;20027;-75
2024/01/15 06:22:56;;;;;;;9.98;1.42;;;1.90;99.90;;;3.38;100.00;98760.88;4952063;28;20042;-76
2024/01/15 06:25:22;;;;;;;4.70;1.23;;;1.90;99.90;;;3.31;100.00;98722.31;4940936;28;20027;-76
2024/01/15 06:27:47;;;;;;;7.13;1.30;;;1.80;99.90;;;3.35;100.00;98742.44;4936992;29;20592;-75
2024/01/15 06:30:14;;;;;;;5.22;1.20;;;1.70;99.90;;;3.33;100.00;98724.81;4947268;28;20043;-75
2024/01/15 06:32:40;;;;;;;7.85;1.65;;;1.70;99.90;;;3.15;100.00;98723.66;4948092;28;20039;-75
2024/01/15 06:35:06;;;;;;;9.43;1.98;;;1.60;99.90;;;3.05;100.00;98740.31;4940850;28;20043;-74
2024/01/15 06:37:32;;;;;;;6.30;1.35;;;1.60;99.90;;;3.16;100.00;98742.31;4957478;28;20039;-74
2024/01/15 06:39:58;;;;;;;8.95;2.00;;;1.60;99.90;;;2.54;100.00;98737.38;4940595;28;20036;-77
2024/01/15 06:42:24;;;;;;;8.02;1.77;;;1.60;99.90;;;2.38;100.00;98749.41;4937922;28;20062;-76
2024/01/15 06:44:50;;;;;;;8.40;1.80;;;1.60;99.90;;;2.40;100.00;98754.59;4952468;28;20039;-77
2024/01/15 06:47:17;;;;;;;8.45;1.60;;;1.60;99.90;;;2.52;100.00;98742.16;4940592;28;20403;-78
2024/01/15 06:49:43;;;;;;;6.90;1.77;;;1.60;99.90;;;2.46;100.00;98731.41;4957858;28;20042;-77
2024/01/15 06:52:08;;;;;;;12.02;1.98;;;1.50;99.90;;;2.36;100.00;98721.88;4946663;29;20046;-77
2024/01/15 06:54:34;;;;;;;13.15;1.75;;;1.50;99.90;;;2.36;100.00;98727.25;4948749;29;20055;-76
2024/01/15 06:57:00;;;;;;;6.38;1.70;;;1.50;99.90;;;2.30;100.00;98712.78;4956125;28;20071;-76
2024/01/15 06:59:26;;;;;;;11.85;2.17;;;1.50;99.90;;;2.42;100.00;98731.81;4961584;28;20066;-77
2024/01/15 07:01:51;;;;;;;9.07;1.73;;;1.60;99.90;;;2.47;100.00;98733.06;4956502;28;20039;-76
2024/01/15 07:04:17;;;;;;;10.95;1.77;;;1.60;99.90;;;2.41;100.00;98751.69;4961457;28;20487;-77
2024/01/15 07:06:43;;;;;;;6.05;1.45;;;1.60;99.90;;;2.47;100.00;98738.44;4949124;28;20031;-77
2024/01/15 07:09:09;;;;;;;9.13;1.40;;;1.70;99.90;;;2.44;100.00;98743.19;4947100;28;20051;-77
2024/01/15 07:11:34;;;;;;;7.60;1.52;;;1.80;99.90;;;2.63;100.00;98748.72;4940402;28;20044;-76
2024/01/15 07:14:00;;;;;;;10.07;1.58;;;1.80;99.90;;;2.64;100.00;98741.50;4952440;29;20039;-78
2024/01/15 07:16:26;;;;;;;10.48;1.90;;;1.80;99.90;;;2.62;100.00;98757.84;4940416;28;20053;-76
2024/01/15 07:18:52;;;;;;;10.50;1.63;;;1.90;99.90;;;2.66;100.00;98734.03;4950289;28;20047;-76
2024/01/15 07:21:17;;;;;;;6.13;1.30;;;1.90;99.90;;;2.64;100.00;98725.34;4956542;28;20047;-76
2024/01/15 07:23:43;;;;;;;9.50;1.83;;;1.90;99.90;;;2.75;100.00;98737.31;4962111;28;20097;-77
2024/01/15 07:26:09;;;;;;;5.60;1.70;;;1.90;99.90;;;2.71;100.00;98724.28;4954200;28;20041;-76
2024/01/15 07:28:35;;;;;;;8.82;1.90;;;2.00;99.90;;;2.73;100.00;98735.66;4938491;29;20051;-76
2024/01/15 07:31:03;;;;;;;9.52;1.50;;;2.00;99.90;;;2.77;100.00;98737.94;4959347;28;20035;-75
2024/01/15 07:33:29;;;;;;;11.75;2.22;;;1.90;99.90;;;2.70;100.00;98740.63;4945317;29;20047;-75
2024/01/15 07:35:55;;;;;;;6.40;2.03;;;1.90;99.90;;;2.66;100.00;98736.72;4953199;28;20541;-77
2024/01/15 07:38:21;;;;;;;7.28;1.80;;;1.80;99.90;;;2.63;100.00;98743.34;4941975;28;20035;-77
2024/01/15 07:40:49;;;;;;;8.70;2.50;;;1.80;99.90;;;2.74;100.00;98741.88;4940459;28;20031;-77
2024/01/15 07:43:15;;;;;;;9.13;2.80;;;1.70;99.90;;;2.64;100.00;98750.38;4939680;28;20035;-76
2024/01/15 07:45:40;;;;;;;8.35;2.47;;;1.70;99.90;;;2.47;100.00;98749.19;4936570;28;20028;-76
2024/01/15 07:48:06;;;;;;;9.70;2.47;;;1.60;99.90;;;2.46;100.00;98752.94;4938332;28;20488;-78
2024/01/15 07:50:32;;;;;;;9.73;2.22;;;1.60;99.90;;;2.56;100.00;98758.69;4946123;28;20039;-76
2024/01/15 07:52:58;;;;;;;7.03;2.60;;;1.60;99.90;;;2.46;100.00;98764.50;4947476;29;20530;-77
2024/01/15 07:55:23;;;;;;;8.57;2.30;;;1.60;99.90;;;2.40;100.00;98760.81;4951154;28;20043;-76
2024/01/15 07:57:50;;;;;;;13.20;2.50;;;1.60;99.90;;;2.43;100.00;98755.00;4940970;29;20508;-77
2024/01/15 08:00:16;;;;;;;5.95;2.15;;;1.60;99.90;;;2.27;100.00;98731.22;4941725;29;20051;-76
2024/01/15 08:02:41;;;;;;;10.05;2.25;;;1.50;99.90;;;2.33;100.00;98749.22;4943871;29;20043;-75
2024/01/15 08:05:07;;;;;;;4.43;1.90;;;1.50;99.90;;;2.13;100.00;98763.53;4946645;29;20036;-76
2024/01/15 08:07:33;;;;;;;9.40;2.35;;;1.40;99.90;;;2.27;100.00;98755.44;4941843;28;20065;-77
2024/01/15 08:09:58;;;;;;;16.25;2.67;;;1.40;99.90;;;2.21;100.00;98758.97;4940835;28;20038;-77
2024/01/15 08:12:24;;;;;;;9.68;2.47;;;1.50;99.90;;;2.26;100.00;98756.47;4941336;28;20090;-77
2024/01/15 08:14:50;;;;;;;11.43;2.53;;;1.40;99.90;;;2.11;100.00;98762.88;4944458;29;20036;-77
2024/01/15 08:17:16;;;;;;;7.35;2.35;;;1.50;99.90;;;2.11;100.00;98756.69;4944907;28;20043;-76
2024/01/15 08:19:42;;;;;;;10.55;2.67;;;1.40;99.90;;;2.04;100.00;98764.75;4938927;29;20043;-76
2024/01/15 08:22:08;;;;;;;11.18;2.47;;;1.30;99.90;;;1.95;100.00;98761.44;4943418;28;20090;-76
2024/01/15 08:24:34;;;;;;;10.35;3.35;;;1.20;99.90;;;2.06;100.00;98761.88;4936045;29;20134;-78
2024/01/15 08:26:59;;;;;;;10.57;2.90;;;1.20;99.90;;;1.86;100.00;98776.97;4950102;28;20043;-77
2024/01/15 08:29:25;;;;;;;14.23;3.17;;;1.20;99.90;;;1.89;100.00;98766.84;4942244;29;20550;-77
2024/01/15 08:31:51;;;;;;;7.28;2.70;;;1.20;99.90;;;1.67;100.00;98750.91;4945443;28;20185;-77
2024/01/15 08:34:17;;;;;;;10.23;2.65;;;1.10;99.90;;;1.82;100.00;98772.22;4942248;29;20043;-77
2024/01/15 08:36:42;;;;;;;6.35;2.53;;;1.10;99.90;;;1.77;100.00;98766.63;4954868;28;20711;-78
2024/01/15 08:39:08;;;;;;;8.68;2.72;;;1.10;99.90;;;1.68;100.00;98769.50;4944993;29;20040;-78
2024/01/15 08:41:35;;;;;;;11.20;3.22;;;1.00;99.90;;;1.82;100.00;98764.97;4939063;29;20046;-77
2024/01/15 08:44:02;;;;;;;9.55;2.92;;;1.10;99.90;;;1.86;100.00;98778.84;4952154;28;20044;-77
2024/01/15 08:46:28;;;;;;;11.25;2.85;;;1.10;99.90;;;1.93;100.00;98763.50;4944919;28;20043;-77
2024/01/15 08:48:54;;;;;;;6.15;2.50;;;1.10;99.90;;;1.92;100.00;98766.44;4945128;28;20035;-77
2024/01/15 08:51:20;;;;;;;7.45;2.50;;;1.20;99.90;;;2.09;100.00;98775.72;4943086;28;20051;-77
2024/01/15 08:53:45;;;;;;;6.85;2.10;;;1.20;99.90;;;2.03;100.00;98778.44;4958452;28;20095;-77
2024/01/15 08:56:11;;;;;;;8.60;2.58;;;1.40;99.90;;;1.97;100.00;98766.63;4954551;28;20047;-78
2024/01/15 08:58:37;;;;;;;8.07;3.00;;;1.40;99.90;;;2.10;100.00;98771.19;4940236;28;20451;-78
2024/01/15 09:01:02;;;;;;;8.52;2.55;;;1.40;99.90;;;2.60;100.00;98778.78;4965794;28;20166;-77
2024/01/15 09:03:30;;;;;;;12.70;2.67;;;1.50;99.90;;;2.53;100.00;98777.97;4966283;28;20043;-77
2024/01/15 09:05:56;;;;;;;5.15;2.10;;;1.70;99.90;;;2.85;100.00;98770.00;4956763;28;20092;-77
2024/01/15 09:08:21;;;;;;;9.05;2.10;;;1.90;99.90;;;3.26;100.00;98787.69;4939301;29;20636;-78
2024/01/15 09:10:47;;;;;;;6.75;2.50;;;2.10;99.90;;;3.24;100.00;98770.91;4938913;29;20047;-77
2024/01/15 09:13:13;;;;;;;7.65;2.00;;;2.20;99.90;;;3.19;100.00;98764.50;4941458;29;20427;-78
2024/01/15 09:15:38;;;;;;;7.85;2.40;;;2.30;99.90;;;2.94;100.00;98771.44;4953383;28;20075;-77
2024/01/15 09:18:05;;;;;;;8.18;1.92;;;2.20;99.90;;;2.82;100.00;98767.75;4950816;28;20051;-76
2024/01/15 09:20:31;;;;;;;13.55;2.63;;;2.10;99.90;;;2.74;100.00;98768.78;4957890;28;20123;-77
2024/01/15 09:23:00;;;;;;;7.30;1.75;;;2.00;99.90;;;2.72;100.00;98762.78;4957445;28;20099;-79
2024/01/15 09:25:27;;;;;;;7.93;2.00;;;2.00;99.90;;;2.93;100.00;98769.78;4954314;28;20095;-77
2024/01/15 09:27:53;;;;;;;7.93;2.20;;;2.10;99.90;;;3.01;100.00;98784.88;4944860;28;20043;-77
2024/01/15 09:30:18;;;;;;;6.70;1.63;;;2.10;99.90;;;2.93;100.00;98775.19;4967493;28;20034;-77
2024/01/15 09:32:44;;;;;;;11.07;1.83;;;2.10;99.90;;;3.05;100.00;98785.28;4954285;28;20067;-77
2024/01/15 09:35:10;;;;;;;6.50;1.75;;;2.20;99.90;;;3.41;100.00;98781.16;4961255;28;20039;-77
2024/01/15 09:37:37;;;;;;;8.25;1.90;;;2.40;99.90;;;3.44;100.00;98786.13;4956687;28;20063;-77
2024/01/15 09:40:06;;;;;;;9.52;1.77;;;2.60;99.90;;;3.35;100.00;98790.13;4957767;28;20085;-76
2024/01/15 09:42:33;;;;;;;10.27;1.60;;;2.60;99.90;;;3.38;100.00;98790.53;4959151;28;20601;-77
2024/01/15 09:44:59;;;;;;;8.30;1.63;;;2.60;99.90;;;3.28;100.00;98792.84;4972623;28;20039;-77
2024/01/15 09:47:25;;;;;;;6.35;1.70;;;2.60;99.90;;;3.54;100.00;98780.25;4956427;28;20494;-80
2024/01/15 09:49:51;;;;;;;7.40;2.58;;;2.80;99.90;;;3.49;100.00;98786.31;4956798;28;20031;-79
2024/01/15 09:52:19;;;;;;;7.20;1.77;;;2.70;99.90;;;3.56;100.00;98805.97;4954355;28;20047;-78
2024/01/15 09:54:46;;;;;;;5.43;1.55;;;2.80;99.90;;;3.81;100.00;98801.66;4969706;28;20078;-80
2024/01/15 09:57:12;;;;;;;6.63;1.65;;;2.80;99.90;;;3.83;100.00;98799.56;4948936;29;20102;-81
2024/01/15 09:59:39;;;;;;;8.38;2.28;;;2.90;99.90;;;3.85;100.00;98797.53;4950463;28;20488;-79
2024/01/15 10:02:07;;;;;;;8.68;1.88;;;2.90;99.90;;;3.83;100.00;98772.59;4954974;28;20053;-81
2024/01/15 10:04:33;;;;;;;6.90;1.80;;;2.90;99.90;;;3.68;100.00;98824.16;4953721;28;20479;-78
2024/01/15 10:07:01;;;;;;;8.98;1.98;;;2.80;99.90;;;3.45;100.00;98769.75;4942827;28;20108;-79
2024/01/15 10:09:27;;;;;;;9.90;2.45;;;2.70;99.90;;;3.70;100.00;98797.78;4946048;28;20039;-79
2024/01/15 10:11:54;;;;;;;5.65;2.10;;;2.80;99.90;;;3.56;100.00;98797.03;4960798;28;20079;-79
2024/01/15 10:14:19;;;;;;;6.55;2.10;;;2.70;99.90;;;3.40;100.00;98817.25;4958725;28;20042;-78
2024/01/15 10:16:45;;;;;;;3.30;1.60;;;2.60;99.90;;;3.22;100.00;98805.31;4952939;28;20488;-80